sensor_id;sensor_type;location;lat;lon;timestamp;pressure;altitude;pressure_sealevel;temperature;humidity
31771;BME280;18343;50.152;8.182;2024-02-04T00:02:37;98311.81;;;9.04;100.00
31771;BME280;18343;50.152;8.182;2024-02-04T00:05:21;98315.00;;;9.00;100.00
31771;BME280;18343;50.152;8.182;2024-02-04T00:08:06;98307.13;;;9.06;100.00
31771;BME280;18343;50.152;8.182;2024-02-04T00:10:51;98290.03;;;9.07;100.00
31771;BME280;18343;50.152;8.182;2024-02-04T00:13:36;98294.91;;;9.12;100.00
31771;BME280;18343;50.152;8.182;2024-02-04T00:16:21;98305.19;;;9.16;100.00
31771;BME280;18343;50.152;8.182;2024-02-04T00:19:06;98304.13;;;9.09;100.00
31771;BME280;18343;50.152;8.182;2024-02-04T00:21:51;98305.50;;;9.13;100.00
31771;BME280;18343;50.152;8.182;2024-02-04T00:24:35;98298.44;;;9.12;100.00
31771;BME280;18343;50.152;8.182;2024-02-04T00:27:20;98289.06;;;9.16;100.00
31771;BME280;18343;50.152;8.182;2024-02-04T00:30:06;98289.22;;;9.15;100.00
31771;BME280;18343;50.152;8.182;2024-02-04T00:32:53;98286.34;;;9.08;100.00
31771;BME280;18343;50.152;8.182;2024-02-04T00:35:37;98283.84;;;9.07;100.00
31771;BME280;18343;50.152;8.182;2024-02-04T00:38:22;98280.34;;;9.14;100.00
31771;BME280;18343;50.152;8.182;2024-02-04T00:41:06;98284.38;;;9.19;100.00
31771;BME280;18343;50.152;8.182;2024-02-04T00:43:51;98287.44;;;9.24;100.00
31771;BME280;18343;50.152;8.182;2024-02-04T00:46:35;98279.84;;;9.19;100.00
31771;BME280;18343;50.152;8.182;2024-02-04T00:49:21;98277.94;;;9.03;100.00
31771;BME280;18343;50.152;8.182;2024-02-04T00:52:06;98295.25;;;9.09;100.00
31771;BME280;18343;50.152;8.182;2024-02-04T00:54:50;98277.97;;;9.11;100.00
31771;BME280;18343;50.152;8.182;2024-02-04T00:57:35;98285.66;;;8.98;100.00
31771;BME280;18343;50.152;8.182;2024-02-04T01:00:20;98276.63;;;8.99;100.00
31771;BME280;18343;50.152;8.182;2024-02-04T01:03:04;98286.50;;;9.07;100.00
31771;BME280;18343;50.152;8.182;2024-02-04T01:05:51;98287.34;;;8.99;100.00
31771;BME280;18343;50.152;8.182;2024-02-04T01:08:35;98286.34;;;9.08;100.00
31771;BME280;18343;50.152;8.182;2024-02-04T01:11:20;98284.69;;;9.07;100.00
31771;BME280;18343;50.152;8.182;2024-02-04T01:14:07;98299.25;;;9.05;100.00
31771;BME280;18343;50.152;8.182;2024-02-04T01:16:51;98295.75;;;9.12;100.00
31771;BME280;18343;50.152;8.182;2024-02-04T01:19:38;98297.78;;;9.10;100.00
31771;BME280;18343;50.152;8.182;2024-02-04T01:22:26;98285.84;;;9.05;100.00
31771;BME280;18343;50.152;8.182;2024-02-04T01:25:13;98300.66;;;9.17;100.00
31771;BME280;18343;50.152;8.182;2024-02-04T01:28:00;98302.13;;;9.11;100.00
31771;BME280;18343;50.152;8.182;2024-02-04T01:30:45;98302.59;;;8.99;100.00
31771;BME280;18343;50.152;8.182;2024-02-04T01:33:29;98319.22;;;9.02;100.00
31771;BME280;18343;50.152;8.182;2024-02-04T01:36:14;98316.75;;;9.17;100.00
31771;BME280;18343;50.152;8.182;2024-02-04T01:39:00;98316.91;;;9.15;100.00
31771;BME280;18343;50.152;8.182;2024-02-04T01:41:46;98311.19;;;9.10;100.00
31771;BME280;18343;50.152;8.182;2024-02-04T01:44:31;98313.38;;;9.15;100.00
31771;BME280;18343;50.152;8.182;2024-02-04T01:47:16;98309.81;;;9.06;100.00
31771;BME280;18343;50.152;8.182;2024-02-04T01:50:01;98314.03;;;9.09;100.00
31771;BME280;18343;50.152;8.182;2024-02-04T01:52:47;98311.19;;;9.10;100.00
31771;BME280;18343;50.152;8.182;2024-02-04T01:55:33;98304.19;;;9.18;100.00
31771;BME280;18343;50.152;8.182;2024-02-04T01:58:18;98298.78;;;9.09;100.00
31771;BME280;18343;50.152;8.182;2024-02-04T02:01:05;98290.34;;;9.04;100.00
31771;BME280;18343;50.152;8.182;2024-02-04T02:03:52;98296.72;;;9.03;100.00
31771;BME280;18343;50.152;8.182;2024-02-04T02:06:38;98288.50;;;9.05;100.00
31771;BME280;18343;50.152;8.182;2024-02-04T02:09:23;98282.31;;;8.96;100.00
31771;BME280;18343;50.152;8.182;2024-02-04T02:12:18;98275.78;;;9.07;100.00
31771;BME280;18343;50.152;8.182;2024-02-04T02:15:13;98277.31;;;9.01;100.00
31771;BME280;18343;50.152;8.182;2024-02-04T02:18:03;98282.31;;;9.04;100.00
31771;BME280;18343;50.152;8.182;2024-02-04T02:21:12;98277.78;;;8.97;100.00
31771;BME280;18343;50.152;8.182;2024-02-04T02:24:11;98277.78;;;8.97;100.00
31771;BME280;18343;50.152;8.182;2024-02-04T02:26:57;98266.22;;;8.96;100.00
31771;BME280;18343;50.152;8.182;2024-02-04T02:29:42;98267.69;;;8.91;100.00
31771;BME280;18343;50.152;8.182;2024-02-04T02:32:26;98264.97;;;8.82;100.00
31771;BME280;18343;50.152;8.182;2024-02-04T02:35:12;98270.91;;;8.94;100.00
31771;BME280;18343;50.152;8.182;2024-02-04T02:38:07;98259.16;;;8.95;100.00
31771;BME280;18343;50.152;8.182;2024-02-04T02:40:58;98253.16;;;9.01;100.00
31771;BME280;18343;50.152;8.182;2024-02-04T02:43:45;98248.13;;;8.98;100.00
31771;BME280;18343;50.152;8.182;2024-02-04T02:46:31;98247.06;;;8.91;100.00
31771;BME280;18343;50.152;8.182;2024-02-04T02:49:16;98244.03;;;8.86;100.00
31771;BME280;18343;50.152;8.182;2024-02-04T02:52:01;98240.72;;;8.92;100.00
31771;BME280;18343;50.152;8.182;2024-02-04T02:54:45;98230.97;;;8.91;100.00
31771;BME280;18343;50.152;8.182;2024-02-04T02:57:30;98224.63;;;8.92;100.00
31771;BME280;18343;50.152;8.182;2024-02-04T03:00:16;98226.66;;;8.98;100.00
31771;BME280;18343;50.152;8.182;2024-02-04T03:03:01;98232.53;;;9.02;100.00
31771;BME280;18343;50.152;8.182;2024-02-04T03:05:46;98227.50;;;8.99;100.00
31771;BME280;18343;50.152;8.182;2024-02-04T03:08:30;98227.13;;;8.94;100.00
31771;BME280;18343;50.152;8.182;2024-02-04T03:11:33;98221.59;;;8.95;100.00
31771;BME280;18343;50.152;8.182;2024-02-04T03:14:20;98230.81;;;8.93;100.00
31771;BME280;18343;50.152;8.182;2024-02-04T03:17:06;98233.84;;;8.98;100.00
31771;BME280;18343;50.152;8.182;2024-02-04T03:19:51;98232.19;;;8.97;100.00
31771;BME280;18343;50.152;8.182;2024-02-04T03:22:35;98237.47;;;8.80;100.00
31771;BME280;18343;50.152;8.182;2024-02-04T03:25:21;98224.56;;;8.84;100.00
31771;BME280;18343;50.152;8.182;2024-02-04T03:28:05;98221.38;;;8.80;100.00
31771;BME280;18343;50.152;8.182;2024-02-04T03:30:50;98223.09;;;8.90;100.00
31771;BME280;18343;50.152;8.182;2024-02-04T03:33:36;98207.53;;;8.93;100.00
31771;BME280;18343;50.152;8.182;2024-02-04T03:36:23;98213.34;;;8.80;100.00
31771;BME280;18343;50.152;8.182;2024-02-04T03:39:08;98203.94;;;8.76;100.00
31771;BME280;18343;50.152;8.182;2024-02-04T03:41:52;98211.13;;;8.76;100.00
31771;BME280;18343;50.152;8.182;2024-02-04T03:44:37;98211.50;;;8.81;100.00
31771;BME280;18343;50.152;8.182;2024-02-04T03:47:22;98217.72;;;8.90;100.00
31771;BME280;18343;50.152;8.182;2024-02-04T03:50:09;98218.53;;;8.82;100.00
31771;BME280;18343;50.152;8.182;2024-02-04T03:52:54;98225.38;;;8.76;100.00
31771;BME280;18343;50.152;8.182;2024-02-04T03:55:38;98223.06;;;8.81;100.00
31771;BME280;18343;50.152;8.182;2024-02-04T03:58:23;98224.94;;;8.89;100.00
31771;BME280;18343;50.152;8.182;2024-02-04T04:01:10;98218.88;;;8.87;100.00
31771;BME280;18343;50.152;8.182;2024-02-04T04:03:55;98225.78;;;8.90;100.00
31771;BME280;18343;50.152;8.182;2024-02-04T04:06:42;98229.94;;;8.84;100.00
31771;BME280;18343;50.152;8.182;2024-02-04T04:09:26;98222.09;;;8.91;100.00
31771;BME280;18343;50.152;8.182;2024-02-04T04:12:11;98215.00;;;8.81;100.00
31771;BME280;18343;50.152;8.182;2024-02-04T04:14:56;98214.16;;;8.81;100.00
31771;BME280;18343;50.152;8.182;2024-02-04T04:17:40;98213.03;;;8.92;100.00
31771;BME280;18343;50.152;8.182;2024-02-04T04:20:24;98211.53;;;8.89;100.00
31771;BME280;18343;50.152;8.182;2024-02-04T04:23:11;98208.31;;;8.86;100.00
31771;BME280;18343;50.152;8.182;2024-02-04T04:25:56;98211.00;;;8.86;100.00
31771;BME280;18343;50.152;8.182;2024-02-04T04:28:41;98223.22;;;8.80;100.00
31771;BME280;18343;50.152;8.182;2024-02-04T04:31:26;98219.56;;;8.89;100.00
31771;BME280;18343;50.152;8.182;2024-02-04T04:34:10;98211.56;;;8.97;100.00
31771;BME280;18343;50.152;8.182;2024-02-04T04:36:55;98220.09;;;8.93;100.00
31771;BME280;18343;50.152;8.182;2024-02-04T04:39:41;98209.31;;;8.85;100.00
31771;BME280;18343;50.152;8.182;2024-02-04T04:42:25;98215.19;;;8.80;100.00
31771;BME280;18343;50.152;8.182;2024-02-04T04:45:11;98215.53;;;8.85;100.00
31771;BME280;18343;50.152;8.182;2024-02-04T04:47:55;98206.13;;;8.81;100.00
31771;BME280;18343;50.152;8.182;2024-02-04T04:50:40;98202.28;;;8.83;100.00
31771;BME280;18343;50.152;8.182;2024-02-04T04:53:25;98207.13;;;8.80;100.00
31771;BME280;18343;50.152;8.182;2024-02-04T04:56:10;98210.50;;;8.82;100.00
31771;BME280;18343;50.152;8.182;2024-02-04T04:58:55;98217.38;;;8.85;100.00
31771;BME280;18343;50.152;8.182;2024-02-04T05:01:45;98216.84;;;8.73;100.00
31771;BME280;18343;50.152;8.182;2024-02-04T05:04:30;98212.16;;;8.75;100.00
31771;BME280;18343;50.152;8.182;2024-02-04T05:07:14;98211.81;;;8.70;100.00
31771;BME280;18343;50.152;8.182;2024-02-04T05:09:59;98218.69;;;8.72;100.00
31771;BME280;18343;50.152;8.182;2024-02-04T05:12:45;98206.81;;;8.75;100.00
31771;BME280;18343;50.152;8.182;2024-02-04T05:15:29;98216.69;;;8.74;100.00
31771;BME280;18343;50.152;8.182;2024-02-04T05:18:13;98217.16;;;8.78;100.00
31771;BME280;18343;50.152;8.182;2024-02-04T05:20:58;98219.22;;;8.84;100.00
31771;BME280;18343;50.152;8.182;2024-02-04T05:23:43;98214.69;;;8.85;100.00
31771;BME280;18343;50.152;8.182;2024-02-04T05:26:27;98211.00;;;8.86;100.00
31771;BME280;18343;50.152;8.182;2024-02-04T05:29:13;98212.69;;;8.87;100.00
31771;BME280;18343;50.152;8.182;2024-02-04T05:31:58;98229.25;;;8.82;100.00
31771;BME280;18343;50.152;8.182;2024-02-04T05:34:43;98227.41;;;8.74;100.00
31771;BME280;18343;50.152;8.182;2024-02-04T05:37:30;98229.75;;;8.77;100.00
31771;BME280;18343;50.152;8.182;2024-02-04T05:40:15;98223.84;;;8.66;100.00
31771;BME280;18343;50.152;8.182;2024-02-04T05:43:00;98224.53;;;8.76;100.00
31771;BME280;18343;50.152;8.182;2024-02-04T05:45:46;98226.22;;;8.69;100.00
31771;BME280;18343;50.152;8.182;2024-02-04T05:48:30;98224.38;;;8.69;100.00
31771;BME280;18343;50.152;8.182;2024-02-04T05:51:15;98210.81;;;8.79;100.00
31771;BME280;18343;50.152;8.182;2024-02-04T05:53:59;98212.69;;;8.87;100.00
31771;BME280;18343;50.152;8.182;2024-02-04T05:56:44;98210.16;;;8.85;100.00
31771;BME280;18343;50.152;8.182;2024-02-04T05:59:29;98206.13;;;8.81;100.00
31771;BME280;18343;50.152;8.182;2024-02-04T06:02:15;98206.13;;;8.81;100.00
31771;BME280;18343;50.152;8.182;2024-02-04T06:04:59;98212.47;;;8.72;100.00
31771;BME280;18343;50.152;8.182;2024-02-04T06:07:44;98210.63;;;8.72;100.00
31771;BME280;18343;50.152;8.182;2024-02-04T06:10:31;98213.16;;;8.74;100.00
31771;BME280;18343;50.152;8.182;2024-02-04T06:13:16;98216.19;;;8.79;100.00
31771;BME280;18343;50.152;8.182;2024-02-04T06:16:00;98218.22;;;8.85;100.00
31771;BME280;18343;50.152;8.182;2024-02-04T06:18:46;98210.84;;;8.87;100.00
31771;BME280;18343;50.152;8.182;2024-02-04T06:21:31;98222.88;;;8.75;100.00
31771;BME280;18343;50.152;8.182;2024-02-04T06:24:16;98213.16;;;8.74;100.00
31771;BME280;18343;50.152;8.182;2024-02-04T06:27:00;98207.66;;;8.83;100.00
31771;BME280;18343;50.152;8.182;2024-02-04T06:29:44;98215.84;;;8.74;100.00
31771;BME280;18343;50.152;8.182;2024-02-04T06:32:29;98210.50;;;8.82;100.00
31771;BME280;18343;50.152;8.182;2024-02-04T06:35:16;98216.19;;;8.79;100.00
31771;BME280;18343;50.152;8.182;2024-02-04T06:38:00;98204.13;;;8.83;100.00
31771;BME280;18343;50.152;8.182;2024-02-04T06:40:45;98193.41;;;8.83;100.00
31771;BME280;18343;50.152;8.182;2024-02-04T06:43:30;98197.09;;;8.82;100.00
31771;BME280;18343;50.152;8.182;2024-02-04T06:46:24;98201.75;;;8.80;100.00
31771;BME280;18343;50.152;8.182;2024-02-04T06:49:09;98205.59;;;8.77;100.00
31771;BME280;18343;50.152;8.182;2024-02-04T06:51:55;98207.31;;;8.87;100.00
31771;BME280;18343;50.152;8.182;2024-02-04T06:54:40;98206.44;;;8.70;100.00
31771;BME280;18343;50.152;8.182;2024-02-04T06:57:24;98196.25;;;8.73;100.00
31771;BME280;18343;50.152;8.182;2024-02-04T07:00:10;98192.56;;;8.74;100.00
31771;BME280;18343;50.152;8.182;2024-02-04T07:02:55;98176.78;;;8.79;100.00
31771;BME280;18343;50.152;8.182;2024-02-04T07:05:40;98192.34;;;8.68;100.00
31771;BME280;18343;50.152;8.182;2024-02-04T07:08:27;98191.53;;;8.75;100.00
31771;BME280;18343;50.152;8.182;2024-02-04T07:11:11;98202.97;;;8.86;100.00
31771;BME280;18343;50.152;8.182;2024-02-04T07:13:56;98204.63;;;8.87;100.00
31771;BME280;18343;50.152;8.182;2024-02-04T07:16:40;98197.41;;;8.71;100.00
31771;BME280;18343;50.152;8.182;2024-02-04T07:19:24;98202.06;;;8.69;100.00
31771;BME280;18343;50.152;8.182;2024-02-04T07:22:09;98204.25;;;8.65;100.00
31771;BME280;18343;50.152;8.182;2024-02-04T07:24:58;98203.09;;;8.76;100.00
31771;BME280;18343;50.152;8.182;2024-02-04T07:27:42;98201.09;;;8.78;100.00
31771;BME280;18343;50.152;8.182;2024-02-04T07:30:30;98203.09;;;8.76;100.00
31771;BME280;18343;50.152;8.182;2024-02-04T07:33:15;98203.59;;;8.79;100.00
31771;BME280;18343;50.152;8.182;2024-02-04T07:35:59;98200.28;;;8.86;100.00
31771;BME280;18343;50.152;8.182;2024-02-04T07:38:44;98204.97;;;8.83;100.00
31771;BME280;18343;50.152;8.182;2024-02-04T07:41:30;98208.13;;;8.79;100.00
31771;BME280;18343;50.152;8.182;2024-02-04T07:44:15;98207.16;;;8.88;100.00
31771;BME280;18343;50.152;8.182;2024-02-04T07:47:00;98207.31;;;8.87;100.00
31771;BME280;18343;50.152;8.182;2024-02-04T07:49:44;98203.44;;;8.73;100.00
31771;BME280;18343;50.152;8.182;2024-02-04T07:52:29;98208.84;;;8.89;100.00
31771;BME280;18343;50.152;8.182;2024-02-04T07:55:14;98205.13;;;8.82;100.00
31771;BME280;18343;50.152;8.182;2024-02-04T07:57:59;98215.84;;;8.82;100.00
31771;BME280;18343;50.152;8.182;2024-02-04T08:00:44;98214.84;;;8.75;100.00
31771;BME280;18343;50.152;8.182;2024-02-04T08:03:29;98214.03;;;8.91;100.00
31771;BME280;18343;50.152;8.182;2024-02-04T08:06:13;98211.53;;;8.89;100.00
31771;BME280;18343;50.152;8.182;2024-02-04T08:08:58;98207.72;;;9.00;100.00
31771;BME280;18343;50.152;8.182;2024-02-04T08:11:42;98198.97;;;8.98;100.00
31771;BME280;18343;50.152;8.182;2024-02-04T08:14:31;98194.97;;;9.02;100.00
31771;BME280;18343;50.152;8.182;2024-02-04T08:17:15;98198.81;;;8.99;100.00
31771;BME280;18343;50.152;8.182;2024-02-04T08:20:00;98198.13;;;9.05;100.00
31771;BME280;18343;50.152;8.182;2024-02-04T08:22:44;98196.81;;;9.01;100.00
31771;BME280;18343;50.152;8.182;2024-02-04T08:25:29;98214.25;;;9.13;100.00
31771;BME280;18343;50.152;8.182;2024-02-04T08:28:13;98213.22;;;9.06;100.00
31771;BME280;18343;50.152;8.182;2024-02-04T08:31:03;98197.13;;;9.06;100.00
31771;BME280;18343;50.152;8.182;2024-02-04T08:33:48;98198.47;;;8.94;100.00
31771;BME280;18343;50.152;8.182;2024-02-04T08:36:32;98193.63;;;8.98;100.00
31771;BME280;18343;50.152;8.182;2024-02-04T08:39:17;98195.28;;;9.07;100.00
31771;BME280;18343;50.152;8.182;2024-02-04T08:42:04;98217.81;;;9.22;100.00
31771;BME280;18343;50.152;8.182;2024-02-04T08:44:49;98207.72;;;9.16;100.00
31771;BME280;18343;50.152;8.182;2024-02-04T08:47:38;98206.56;;;9.35;100.00
31771;BME280;18343;50.152;8.182;2024-02-04T08:50:31;98198.34;;;9.36;100.00
31771;BME280;18343;50.152;8.182;2024-02-04T08:53:16;98192.00;;;9.37;100.00
31771;BME280;18343;50.152;8.182;2024-02-04T08:56:00;98188.63;;;9.35;100.00
31771;BME280;18343;50.152;8.182;2024-02-04T08:58:45;98178.56;;;9.21;100.00
31771;BME280;18343;50.152;8.182;2024-02-04T09:01:32;98186.44;;;9.39;100.00
31771;BME280;18343;50.152;8.182;2024-02-04T09:04:18;98206.06;;;9.31;100.00
31771;BME280;18343;50.152;8.182;2024-02-04T09:07:03;98212.47;;;9.38;100.00
31771;BME280;18343;50.152;8.182;2024-02-04T09:09:50;98205.06;;;9.40;100.00
31771;BME280;18343;50.152;8.182;2024-02-04T09:12:40;98206.09;;;9.47;100.00
31771;BME280;18343;50.152;8.182;2024-02-04T09:15:25;98200.91;;;9.54;100.00
31771;BME280;18343;50.152;8.182;2024-02-04T09:18:09;98194.53;;;9.47;100.00
31771;BME280;18343;50.152;8.182;2024-02-04T09:20:58;98197.88;;;9.57;100.00
31771;BME280;18343;50.152;8.182;2024-02-04T09:23:43;98198.38;;;9.61;100.00
31771;BME280;18343;50.152;8.182;2024-02-04T09:26:27;98201.56;;;9.72;100.00
31771;BME280;18343;50.152;8.182;2024-02-04T09:29:12;98197.53;;;9.84;100.00
31771;BME280;18343;50.152;8.182;2024-02-04T09:31:58;98201.72;;;9.71;100.00
31771;BME280;18343;50.152;8.182;2024-02-04T09:34:43;98193.00;;;9.77;100.00
31771;BME280;18343;50.152;8.182;2024-02-04T09:37:29;98193.50;;;9.72;100.00
31771;BME280;18343;50.152;8.182;2024-02-04T09:40:14;98197.69;;;9.91;100.00
31771;BME280;18343;50.152;8.182;2024-02-04T09:43:00;98204.25;;;9.80;100.00
31771;BME280;18343;50.152;8.182;2024-02-04T09:45:46;98186.28;;;9.73;100.00
31771;BME280;18343;50.152;8.182;2024-02-04T09:48:32;98184.41;;;9.98;100.00
31771;BME280;18343;50.152;8.182;2024-02-04T09:51:17;98183.06;;;10.10;100.00
31771;BME280;18343;50.152;8.182;2024-02-04T09:54:05;98187.25;;;10.04;100.00
31771;BME280;18343;50.152;8.182;2024-02-04T09:56:56;98191.78;;;10.04;100.00
31771;BME280;18343;50.152;8.182;2024-02-04T09:59:44;98196.63;;;10.16;100.00
31771;BME280;18343;50.152;8.182;2024-02-04T10:02:29;98203.88;;;9.92;100.00
31771;BME280;18343;50.152;8.182;2024-02-04T10:05:15;98199.56;;;9.74;100.00
31771;BME280;18343;50.152;8.182;2024-02-04T10:08:00;98198.53;;;9.92;100.00
31771;BME280;18343;50.152;8.182;2024-02-04T10:10:47;98197.16;;;10.04;100.00
31771;BME280;18343;50.152;8.182;2024-02-04T10:13:43;98197.16;;;10.12;100.00
31771;BME280;18343;50.152;8.182;2024-02-04T10:16:29;98195.81;;;10.08;100.00
31771;BME280;18343;50.152;8.182;2024-02-04T10:19:14;98209.94;;;10.10;100.00
31771;BME280;18343;50.152;8.182;2024-02-04T10:21:59;98193.75;;;10.18;100.00
31771;BME280;18343;50.152;8.182;2024-02-04T10:24:44;98196.31;;;10.28;100.00
31771;BME280;18343;50.152;8.182;2024-02-04T10:27:30;98193.63;;;10.28;100.00
31771;BME280;18343;50.152;8.182;2024-02-04T10:30:15;98198.47;;;10.16;100.00
31771;BME280;18343;50.152;8.182;2024-02-04T10:32:59;98204.03;;;10.31;100.00
31771;BME280;18343;50.152;8.182;2024-02-04T10:35:44;98198.66;;;10.23;100.00
31771;BME280;18343;50.152;8.182;2024-02-04T10:38:28;98189.94;;;10.04;100.00
31771;BME280;18343;50.152;8.182;2024-02-04T10:41:15;98187.75;;;10.08;100.00
31771;BME280;18343;50.152;8.182;2024-02-04T10:44:03;98192.13;;;10.09;100.00
31771;BME280;18343;50.152;8.182;2024-02-04T10:46:50;98190.41;;;10.16;100.00
31771;BME280;18343;50.152;8.182;2024-02-04T10:49:37;98200.88;;;10.11;100.00
31771;BME280;18343;50.152;8.182;2024-02-04T10:52:27;98195.78;;;10.16;100.00
31771;BME280;18343;50.152;8.182;2024-02-04T10:55:11;98190.59;;;10.23;100.00
31771;BME280;18343;50.152;8.182;2024-02-04T10:57:57;98182.38;;;10.08;100.00
31771;BME280;18343;50.152;8.182;2024-02-04T11:00:44;98169.47;;;10.03;100.00
31771;BME280;18343;50.152;8.182;2024-02-04T11:03:29;98172.66;;;9.99;100.00
31771;BME280;18343;50.152;8.182;2024-02-04T11:06:15;98169.13;;;9.98;100.00
31771;BME280;18343;50.152;8.182;2024-02-04T11:09:00;98156.97;;;10.18;100.00
31771;BME280;18343;50.152;8.182;2024-02-04T11:11:45;98140.72;;;10.12;100.00
31771;BME280;18343;50.152;8.182;2024-02-04T11:14:31;98139.34;;;10.16;100.00
31771;BME280;18343;50.152;8.182;2024-02-04T11:21:34;98153.19;;;9.97;100.00
31771;BME280;18343;50.152;8.182;2024-02-04T11:24:41;98140.22;;;10.08;100.00
31771;BME280;18343;50.152;8.182;2024-02-04T11:27:28;98150.28;;;10.23;100.00
31771;BME280;18343;50.152;8.182;2024-02-04T11:30:14;98145.41;;;10.26;100.00
31771;BME280;18343;50.152;8.182;2024-02-04T11:33:02;98143.56;;;10.27;100.00
31771;BME280;18343;50.152;8.182;2024-02-04T11:35:47;98131.41;;;10.39;100.00
31771;BME280;18343;50.152;8.182;2024-02-04T11:38:42;98143.34;;;10.36;100.00
31771;BME280;18343;50.152;8.182;2024-02-04T11:41:26;98140.03;;;10.26;100.00
31771;BME280;18343;50.152;8.182;2024-02-04T11:44:11;98141.22;;;10.24;100.00
31771;BME280;18343;50.152;8.182;2024-02-04T11:46:55;98143.53;;;10.18;100.00
31771;BME280;18343;50.152;8.182;2024-02-04T11:49:41;98147.75;;;10.29;100.00
31771;BME280;18343;50.152;8.182;2024-02-04T11:52:27;98155.97;;;10.28;100.00
31771;BME280;18343;50.152;8.182;2024-02-04T11:55:15;98147.09;;;10.19;100.00
31771;BME280;18343;50.152;8.182;2024-02-04T11:58:00;98131.81;;;10.20;100.00
31771;BME280;18343;50.152;8.182;2024-02-04T12:00:45;98139.69;;;10.21;100.00
31771;BME280;18343;50.152;8.182;2024-02-04T12:03:32;98132.31;;;10.23;100.00
31771;BME280;18343;50.152;8.182;2024-02-04T12:06:19;98126.09;;;10.23;100.00
31771;BME280;18343;50.152;8.182;2024-02-04T12:09:05;98116.22;;;9.99;100.00
31771;BME280;18343;50.152;8.182;2024-02-04T12:11:49;98117.19;;;10.14;100.00
31771;BME280;18343;50.152;8.182;2024-02-04T12:14:35;98112.28;;;10.17;100.00
31771;BME280;18343;50.152;8.182;2024-02-04T12:17:20;98108.50;;;10.04;100.00
31771;BME280;18343;50.152;8.182;2024-02-04T12:20:08;98121.94;;;10.04;100.00
31771;BME280;18343;50.152;8.182;2024-02-04T12:22:54;98124.78;;;10.10;100.00
31771;BME280;18343;50.152;8.182;2024-02-04T12:25:39;98117.56;;;10.03;100.00
31771;BME280;18343;50.152;8.182;2024-02-04T12:28:23;98111.34;;;10.10;100.00
31771;BME280;18343;50.152;8.182;2024-02-04T12:31:17;98112.81;;;10.21;100.00
31771;BME280;18343;50.152;8.182;2024-02-04T12:34:01;98107.66;;;10.03;100.00
31771;BME280;18343;50.152;8.182;2024-02-04T12:36:46;98108.66;;;10.10;100.00
31771;BME280;18343;50.152;8.182;2024-02-04T12:39:42;98108.78;;;10.25;100.00
31771;BME280;18343;50.152;8.182;2024-02-04T12:42:27;98110.13;;;10.21;100.00
31771;BME280;18343;50.152;8.182;2024-02-04T12:45:14;98097.84;;;10.18;100.00
31771;BME280;18343;50.152;8.182;2024-02-04T12:47:59;98091.50;;;10.11;100.00
31771;BME280;18343;50.152;8.182;2024-02-04T12:50:44;98092.66;;;10.25;100.00
31771;BME280;18343;50.152;8.182;2024-02-04T12:53:28;98090.13;;;10.24;100.00
31771;BME280;18343;50.152;8.182;2024-02-04T12:56:14;98082.97;;;10.00;100.00
31771;BME280;18343;50.152;8.182;2024-02-04T12:58:59;98082.78;;;10.09;100.00
31771;BME280;18343;50.152;8.182;2024-02-04T13:01:44;98090.72;;;9.95;100.00
31771;BME280;18343;50.152;8.182;2024-02-04T13:04:34;98086.69;;;9.99;100.00
31771;BME280;18343;50.152;8.182;2024-02-04T13:07:19;98104.75;;;10.13;100.00
31771;BME280;18343;50.152;8.182;2024-02-04T13:10:04;98093.66;;;10.16;100.00
31771;BME280;18343;50.152;8.182;2024-02-04T13:13:00;98096.34;;;10.16;100.00
31771;BME280;18343;50.152;8.182;2024-02-04T13:15:45;98102.75;;;10.23;100.00
31771;BME280;18343;50.152;8.182;2024-02-04T13:18:29;98096.34;;;10.16;100.00
31771;BME280;18343;50.152;8.182;2024-02-04T13:21:14;98096.69;;;10.21;100.00
31771;BME280;18343;50.152;8.182;2024-02-04T13:23:59;98091.63;;;10.18;100.00
31771;BME280;18343;50.152;8.182;2024-02-04T13:26:44;98084.28;;;10.20;100.00
31771;BME280;18343;50.152;8.182;2024-02-04T13:29:30;98078.91;;;10.20;100.00
31771;BME280;18343;50.152;8.182;2024-02-04T13:32:14;98073.00;;;10.16;100.00
31771;BME280;18343;50.152;8.182;2024-02-04T13:34:59;98067.44;;;10.26;100.00
31771;BME280;18343;50.152;8.182;2024-02-04T13:37:46;98067.09;;;10.29;100.00
31771;BME280;18343;50.152;8.182;2024-02-04T13:40:30;98061.75;;;10.21;100.00
31771;BME280;18343;50.152;8.182;2024-02-04T13:43:15;98067.44;;;10.26;100.00
31771;BME280;18343;50.152;8.182;2024-02-04T13:46:01;98071.59;;;10.37;100.00
31771;BME280;18343;50.152;8.182;2024-02-04T13:48:46;98069.22;;;10.42;100.00
31771;BME280;18343;50.152;8.182;2024-02-04T13:51:31;98068.53;;;10.40;100.00
31771;BME280;18343;50.152;8.182;2024-02-04T13:54:16;98066.97;;;10.23;100.00
31771;BME280;18343;50.152;8.182;2024-02-04T13:57:01;98073.91;;;10.01;100.00
31771;BME280;18343;50.152;8.182;2024-02-04T13:59:46;98073.16;;;10.15;100.00
31771;BME280;18343;50.152;8.182;2024-02-04T14:02:32;98074.72;;;10.09;100.00
31771;BME280;18343;50.152;8.182;2024-02-04T14:05:16;98075.50;;;10.18;100.00
31771;BME280;18343;50.152;8.182;2024-02-04T14:08:01;98056.03;;;10.24;100.00
31771;BME280;18343;50.152;8.182;2024-02-04T14:10:46;98061.59;;;10.23;100.00
31771;BME280;18343;50.152;8.182;2024-02-04T14:13:31;98056.56;;;10.20;100.00
31771;BME280;18343;50.152;8.182;2024-02-04T14:16:15;98057.53;;;10.18;100.00
31771;BME280;18343;50.152;8.182;2024-02-04T14:19:01;98061.72;;;10.29;100.00
31771;BME280;18343;50.152;8.182;2024-02-04T14:21:46;98063.16;;;10.40;100.00
31771;BME280;18343;50.152;8.182;2024-02-04T14:24:31;98066.50;;;10.42;100.00
31771;BME280;18343;50.152;8.182;2024-02-04T14:27:16;98080.97;;;10.41;100.00
31771;BME280;18343;50.152;8.182;2024-02-04T14:30:00;98070.00;;;10.20;100.00
31771;BME280;18343;50.152;8.182;2024-02-04T14:32:45;98076.19;;;10.20;100.00
31771;BME280;18343;50.152;8.182;2024-02-04T14:35:31;98061.22;;;10.17;100.00
31771;BME280;18343;50.152;8.182;2024-02-04T14:38:16;98067.13;;;10.13;100.00
31771;BME280;18343;50.152;8.182;2024-02-04T14:41:00;98060.56;;;10.24;100.00